createdAt,value
2016-05-07T00:00:30.781Z,0
2016-05-07T00:01:30.470Z,0
2016-05-07T00:02:30.832Z,0
2016-05-07T00:03:30.851Z,0
2016-05-07T00:04:30.884Z,0
2016-05-07T00:05:30.919Z,0
2016-05-07T00:06:30.781Z,0
2016-05-07T00:07:30.643Z,0
2016-05-07T00:08:30.973Z,0
2016-05-07T00:09:30.851Z,0
2016-05-07T00:10:31.025Z,0
2016-05-07T00:11:31.061Z,0
2016-05-07T00:12:30.938Z,0
2016-05-07T00:13:31.096Z,0
2016-05-07T00:14:31.131Z,0
2016-05-07T00:15:31.164Z,0
2016-05-07T00:16:31.166Z,0
2016-05-07T00:17:31.201Z,0
2016-05-07T00:18:31.235Z,0
2016-05-07T00:19:31.097Z,0
2016-05-07T00:20:31.116Z,0
2016-05-07T00:21:31.321Z,0
2016-05-07T00:22:31.324Z,0
2016-05-07T00:23:31.342Z,0
2016-05-07T00:24:31.376Z,0
2016-05-07T00:25:31.394Z,0
2016-05-07T00:26:31.429Z,0
2016-05-07T00:27:31.149Z,0
2016-05-07T00:28:31.481Z,0
2016-05-07T00:29:31.529Z,0
2016-05-07T00:30:31.377Z,0
2016-05-07T00:31:31.551Z,0
2016-05-07T00:32:31.585Z,0
2016-05-07T00:33:31.603Z,0
2016-05-07T00:34:31.653Z,0
2016-05-07T00:35:31.656Z,0
2016-05-07T00:36:31.689Z,0
2016-05-07T00:37:31.693Z,0
2016-05-07T00:38:31.726Z,0
2016-05-07T00:39:31.776Z,0
2016-05-07T00:40:31.778Z,0
2016-05-07T00:41:31.812Z,0
2016-05-07T00:42:31.971Z,0
2016-05-07T00:43:31.849Z,0
2016-05-07T00:44:31.727Z,0
2016-05-07T00:45:31.902Z,0
2016-05-07T00:46:31.919Z,0
2016-05-07T00:47:31.953Z,0
2016-05-07T00:48:31.816Z,0
2016-05-07T00:49:31.849Z,0
2016-05-07T00:50:32.024Z,0
2016-05-07T00:51:32.074Z,0
2016-05-07T00:52:32.091Z,0
2016-05-07T00:53:32.094Z,0
2016-05-07T00:54:31.957Z,0
2016-05-07T00:55:32.163Z,0
2016-05-07T00:56:31.853Z,0
2016-05-07T00:57:32.198Z,0
2016-05-07T00:58:32.062Z,0
2016-05-07T00:59:32.235Z,0
2016-05-07T01:00:32.270Z,0
2016-05-07T01:01:32.287Z,0
2016-05-07T01:02:32.165Z,0
2016-05-07T01:03:32.356Z,0
2016-05-07T01:04:32.374Z,0
2016-05-07T01:05:32.237Z,0
2016-05-07T01:06:32.411Z,0
2016-05-07T01:07:32.445Z,0
2016-05-07T01:08:32.478Z,0
2016-05-07T01:09:32.481Z,0
2016-05-07T01:10:32.515Z,0
2016-05-07T01:11:32.550Z,0
2016-05-07T01:12:32.817Z,0
2016-05-07T01:13:32.586Z,0
2016-05-07T01:14:32.605Z,0
2016-05-07T01:15:32.653Z,0
2016-05-07T01:16:32.656Z,0
2016-05-07T01:17:32.691Z,0
2016-05-07T01:18:32.708Z,0
2016-05-07T01:19:32.727Z,0
2016-05-07T01:20:32.776Z,0
2016-05-07T01:21:32.795Z,0
2016-05-07T01:22:32.797Z,0
2016-05-07T01:23:32.832Z,0
2016-05-07T01:24:32.693Z,0
2016-05-07T01:25:32.869Z,0
2016-05-07T01:26:32.745Z,0
2016-05-07T01:27:32.936Z,0
2016-05-07T01:28:32.955Z,0
2016-05-07T01:29:32.832Z,0
2016-05-07T01:30:32.990Z,0
2016-05-07T01:31:33.026Z,0
2016-05-07T01:32:33.043Z,0
2016-05-07T01:33:33.077Z,0
2016-05-07T01:34:33.096Z,0
2016-05-07T01:35:33.114Z,0
2016-05-07T01:36:33.148Z,0
2016-05-07T01:37:33.181Z,0
2016-05-07T01:38:33.184Z,0
2016-05-07T01:39:33.218Z,0
2016-05-07T01:40:33.253Z,0
2016-05-07T01:41:33.217Z,0
2016-05-07T01:42:33.317Z,0
2016-05-07T01:43:33.351Z,0
2016-05-07T01:44:33.179Z,0
2016-05-07T01:45:33.228Z,0
2016-05-07T01:46:33.231Z,0
2016-05-07T01:47:33.405Z,0
2016-05-07T01:48:33.423Z,0
2016-05-07T01:49:33.456Z,0
2016-05-07T01:50:33.476Z,0
2016-05-07T01:51:33.494Z,0
2016-05-07T01:52:33.386Z,0
2016-05-07T01:53:33.562Z,0
2016-05-07T01:54:33.580Z,0
2016-05-07T01:55:33.458Z,0
2016-05-07T01:56:33.633Z,0
2016-05-07T01:57:33.681Z,0
2016-05-07T01:58:33.669Z,0
2016-05-07T01:59:33.547Z,0
2016-05-07T02:00:33.705Z,0
2016-05-07T02:01:33.739Z,0
2016-05-07T02:02:33.774Z,0
2016-05-07T02:03:33.619Z,0
2016-05-07T02:04:33.654Z,0
2016-05-07T02:05:33.688Z,0
2016-05-07T02:06:33.706Z,0
2016-05-07T02:07:33.880Z,0
2016-05-07T02:08:33.915Z,0
2016-05-07T02:09:33.776Z,0
2016-05-07T02:10:33.951Z,0
2016-05-07T02:11:33.985Z,0
2016-05-07T02:12:34.504Z,0
2016-05-07T02:13:34.021Z,0
2016-05-07T02:14:34.056Z,0
2016-05-07T02:15:34.073Z,0
2016-05-07T02:16:34.093Z,0
2016-05-07T02:17:34.126Z,0
2016-05-07T02:18:33.988Z,0
2016-05-07T02:19:34.162Z,0
2016-05-07T02:20:34.197Z,0
2016-05-07T02:21:34.214Z,0
2016-05-07T02:22:34.234Z,0
2016-05-07T02:23:34.267Z,0
2016-05-07T02:24:34.289Z,0
2016-05-07T02:25:34.307Z,0
2016-05-07T02:26:34.184Z,0
2016-05-07T02:27:34.953Z,0
2016-05-07T02:28:34.393Z,0
2016-05-07T02:29:34.443Z,0
2016-05-07T02:30:34.430Z,0
2016-05-07T02:31:34.510Z,0
2016-05-07T02:32:34.481Z,0
2016-05-07T02:33:34.517Z,0
2016-05-07T02:34:34.519Z,0
2016-05-07T02:35:34.569Z,0
2016-05-07T02:36:34.414Z,0
2016-05-07T02:37:34.619Z,0
2016-05-07T02:38:34.623Z,0
2016-05-07T02:39:34.501Z,0
2016-05-07T02:40:34.347Z,0
2016-05-07T02:41:34.694Z,0
2016-05-07T02:42:35.352Z,0
2016-05-07T02:43:34.730Z,0
2016-05-07T02:44:34.764Z,0
2016-05-07T02:45:34.627Z,0
2016-05-07T02:46:34.644Z,0
2016-05-07T02:47:34.835Z,0
2016-05-07T02:48:34.868Z,0
2016-05-07T02:49:34.871Z,0
2016-05-07T02:50:34.734Z,0
2016-05-07T02:51:34.924Z,0
2016-05-07T02:52:34.785Z,0
2016-05-07T02:53:34.804Z,0
2016-05-07T02:54:34.838Z,0
2016-05-07T02:55:34.872Z,0
2016-05-07T02:56:34.734Z,0
2016-05-07T02:57:35.065Z,0
2016-05-07T02:58:35.083Z,0
2016-05-07T02:59:34.992Z,0
2016-05-07T03:00:35.136Z,0
2016-05-07T03:01:35.153Z,0
2016-05-07T03:02:35.031Z,0
2016-05-07T03:03:35.222Z,0
2016-05-07T03:04:35.240Z,0
2016-05-07T03:05:35.242Z,0
2016-05-07T03:06:35.292Z,0
2016-05-07T03:07:35.294Z,0
2016-05-07T03:08:35.157Z,0
2016-05-07T03:09:35.347Z,0
2016-05-07T03:10:35.381Z,4
2016-05-07T03:11:35.399Z,4
2016-05-07T03:12:35.777Z,0
2016-05-07T03:13:35.435Z,0
2016-05-07T03:14:35.470Z,4
2016-05-07T03:15:35.332Z,4
2016-05-07T03:16:35.491Z,0
2016-05-07T03:17:35.384Z,4
2016-05-07T03:18:35.402Z,4
2016-05-07T03:19:35.404Z,4
2016-05-07T03:20:35.283Z,4
2016-05-07T03:21:35.613Z,8
2016-05-07T03:22:35.632Z,8
2016-05-07T03:23:35.665Z,8
2016-05-07T03:24:35.701Z,8
2016-05-07T03:25:35.734Z,12
2016-05-07T03:26:35.565Z,12
2016-05-07T03:27:36.004Z,16
2016-05-07T03:28:35.617Z,16
2016-05-07T03:29:35.650Z,12
2016-05-07T03:30:35.513Z,20
2016-05-07T03:31:35.703Z,20
2016-05-07T03:32:35.722Z,20
2016-05-07T03:33:35.895Z,24
2016-05-07T03:34:35.774Z,24
2016-05-07T03:35:35.964Z,24
2016-05-07T03:36:35.967Z,28
2016-05-07T03:37:36.016Z,32
2016-05-07T03:38:36.019Z,32
2016-05-07T03:39:35.880Z,36
2016-05-07T03:40:35.822Z,36
2016-05-07T03:41:36.089Z,40
2016-05-07T03:42:37.451Z,40
2016-05-07T03:43:36.126Z,44
2016-05-07T03:44:36.160Z,48
2016-05-07T03:45:36.163Z,48
2016-05-07T03:46:36.056Z,52
2016-05-07T03:47:36.215Z,52
2016-05-07T03:48:36.077Z,60
2016-05-07T03:49:36.268Z,64
2016-05-07T03:50:36.145Z,64
2016-05-07T03:51:36.148Z,68
2016-05-07T03:52:36.181Z,72
2016-05-07T03:53:36.246Z,76
2016-05-07T03:54:36.218Z,76
2016-05-07T03:55:36.470Z,80
2016-05-07T03:56:36.271Z,84
2016-05-07T03:57:36.757Z,84
2016-05-07T03:58:36.479Z,88
2016-05-07T03:59:36.497Z,92
2016-05-07T04:00:36.500Z,92
2016-05-07T04:01:36.550Z,96
2016-05-07T04:02:36.395Z,100
2016-05-07T04:03:36.273Z,104
2016-05-07T04:04:36.604Z,108
2016-05-07T04:05:36.639Z,108
2016-05-07T04:06:36.656Z,112
2016-05-07T04:07:36.675Z,112
2016-05-07T04:08:36.537Z,120
2016-05-07T04:09:36.727Z,120
2016-05-07T04:10:36.745Z,124
2016-05-07T04:11:36.608Z,124
2016-05-07T04:12:36.657Z,132
2016-05-07T04:13:36.800Z,132
2016-05-07T04:14:36.819Z,132
2016-05-07T04:15:36.852Z,140
2016-05-07T04:16:36.886Z,140
2016-05-07T04:17:36.749Z,140
2016-05-07T04:18:36.939Z,144
2016-05-07T04:19:36.941Z,148
2016-05-07T04:20:36.976Z,148
2016-05-07T04:21:36.993Z,152
2016-05-07T04:22:37.012Z,156
2016-05-07T04:23:36.890Z,156
2016-05-07T04:24:36.893Z,160
2016-05-07T04:25:37.082Z,164
2016-05-07T04:26:37.320Z,164
2016-05-07T04:27:37.166Z,164
2016-05-07T04:28:37.153Z,172
2016-05-07T04:29:37.187Z,172
2016-05-07T04:30:37.049Z,172
2016-05-07T04:31:37.223Z,176
2016-05-07T04:32:37.242Z,180
2016-05-07T04:33:37.261Z,180
2016-05-07T04:34:37.122Z,184
2016-05-07T04:35:37.157Z,184
2016-05-07T04:36:37.331Z,184
2016-05-07T04:37:37.349Z,188
2016-05-07T04:38:37.368Z,188
2016-05-07T04:39:37.402Z,192
2016-05-07T04:40:37.419Z,196
2016-05-07T04:41:37.438Z,196
2016-05-07T04:42:37.692Z,200
2016-05-07T04:43:37.491Z,200
2016-05-07T04:44:37.508Z,204
2016-05-07T04:45:37.527Z,204
2016-05-07T04:46:39.202Z,204
2016-05-07T04:47:37.580Z,208
2016-05-07T04:48:37.441Z,208
2016-05-07T04:49:37.616Z,212
2016-05-07T04:50:37.650Z,216
2016-05-07T04:51:37.668Z,216
2016-05-07T04:52:37.530Z,216
2016-05-07T04:53:37.704Z,220
2016-05-07T04:54:37.723Z,224
2016-05-07T04:55:37.757Z,220
2016-05-07T04:56:37.791Z,224
2016-05-07T04:57:37.496Z,228
2016-05-07T04:58:37.671Z,224
2016-05-07T04:59:37.846Z,228
2016-05-07T05:00:37.880Z,228
2016-05-07T05:01:37.898Z,232
2016-05-07T05:02:37.917Z,232
2016-05-07T05:03:37.934Z,236
2016-05-07T05:04:37.798Z,232
2016-05-07T05:05:37.815Z,236
2016-05-07T05:06:37.849Z,236
2016-05-07T05:07:38.023Z,240
2016-05-07T05:08:38.042Z,240
2016-05-07T05:09:37.904Z,244
2016-05-07T05:10:38.095Z,244
2016-05-07T05:11:38.113Z,244
2016-05-07T05:12:38.147Z,248
2016-05-07T05:13:38.008Z,248
2016-05-07T05:14:38.183Z,252
2016-05-07T05:15:38.045Z,252
2016-05-07T05:16:38.236Z,256
2016-05-07T05:17:38.238Z,256
2016-05-07T05:18:38.272Z,260
2016-05-07T05:19:38.291Z,260
2016-05-07T05:20:38.308Z,260
2016-05-07T05:21:38.344Z,264
2016-05-07T05:22:38.361Z,264
2016-05-07T05:23:38.395Z,264
2016-05-07T05:24:38.398Z,264
2016-05-07T05:25:38.119Z,268
2016-05-07T05:26:38.449Z,268
2016-05-07T05:27:38.484Z,272
2016-05-07T05:28:38.487Z,272
2016-05-07T05:29:38.505Z,276
2016-05-07T05:30:38.539Z,272
2016-05-07T05:31:38.401Z,276
2016-05-07T05:32:38.591Z,276
2016-05-07T05:33:38.609Z,276
2016-05-07T05:34:38.628Z,280
2016-05-07T05:35:38.662Z,280
2016-05-07T05:36:38.523Z,280
2016-05-07T05:37:38.542Z,284
2016-05-07T05:38:38.561Z,284
2016-05-07T05:39:38.750Z,284
2016-05-07T05:40:38.770Z,284
2016-05-07T05:41:38.631Z,284
2016-05-07T05:42:39.289Z,288
2016-05-07T05:43:38.825Z,288
2016-05-07T05:44:38.702Z,292
2016-05-07T05:45:38.720Z,292
2016-05-07T05:46:38.894Z,292
2016-05-07T05:47:38.928Z,292
2016-05-07T05:48:38.947Z,296
2016-05-07T05:49:38.965Z,296
2016-05-07T05:50:38.686Z,296
2016-05-07T05:51:39.017Z,296
2016-05-07T05:52:39.036Z,300
2016-05-07T05:53:39.054Z,300
2016-05-07T05:54:39.088Z,300
2016-05-07T05:55:39.107Z,300
2016-05-07T05:56:39.124Z,304
2016-05-07T05:57:39.408Z,304
2016-05-07T05:58:39.036Z,304
2016-05-07T05:59:38.883Z,304
2016-05-07T06:00:39.229Z,308
2016-05-07T06:01:39.076Z,308
2016-05-07T06:02:39.125Z,312
2016-05-07T06:03:39.284Z,308
2016-05-07T06:04:39.302Z,308
2016-05-07T06:05:39.165Z,312
2016-05-07T06:06:39.339Z,312
2016-05-07T06:07:39.373Z,312
2016-05-07T06:08:39.235Z,316
2016-05-07T06:09:39.410Z,316
2016-05-07T06:10:39.303Z,316
2016-05-07T06:11:39.461Z,316
2016-05-07T06:12:39.511Z,320
2016-05-07T06:13:39.514Z,320
2016-05-07T06:14:39.236Z,320
2016-05-07T06:15:39.551Z,320
2016-05-07T06:16:39.600Z,324
2016-05-07T06:17:39.603Z,320
2016-05-07T06:18:39.465Z,324
2016-05-07T06:19:39.640Z,324
2016-05-07T06:20:39.674Z,328
2016-05-07T06:21:39.614Z,324
2016-05-07T06:22:39.725Z,328
2016-05-07T06:23:39.572Z,328
2016-05-07T06:24:39.763Z,328
2016-05-07T06:25:39.765Z,328
2016-05-07T06:26:39.815Z,332
2016-05-07T06:27:41.677Z,332
2016-05-07T06:28:39.710Z,332
2016-05-07T06:29:39.729Z,336
2016-05-07T06:30:39.903Z,332
2016-05-07T06:31:39.906Z,336
2016-05-07T06:32:39.957Z,336
2016-05-07T06:33:39.974Z,340
2016-05-07T06:34:39.992Z,340
2016-05-07T06:35:40.011Z,336
2016-05-07T06:36:40.045Z,340
2016-05-07T06:37:40.048Z,344
2016-05-07T06:38:40.081Z,340
2016-05-07T06:39:40.209Z,340
2016-05-07T06:40:39.978Z,344
2016-05-07T06:41:40.167Z,344
2016-05-07T06:42:41.248Z,344
2016-05-07T06:43:40.031Z,348
2016-05-07T06:44:40.066Z,348
2016-05-07T06:45:40.241Z,348
2016-05-07T06:46:40.275Z,348
2016-05-07T06:47:40.293Z,352
2016-05-07T06:48:40.311Z,352
2016-05-07T06:49:40.330Z,352
2016-05-07T06:50:40.364Z,356
2016-05-07T06:51:40.366Z,352
2016-05-07T06:52:40.400Z,352
2016-05-07T06:53:40.434Z,356
2016-05-07T06:54:40.452Z,352
2016-05-07T06:55:40.471Z,356
2016-05-07T06:56:40.488Z,356
2016-05-07T06:57:40.899Z,360
2016-05-07T06:58:40.619Z,360
2016-05-07T06:59:40.621Z,360
2016-05-07T07:00:40.481Z,360
2016-05-07T07:01:40.705Z,360
2016-05-07T07:02:40.330Z,364
2016-05-07T07:03:40.662Z,360
2016-05-07T07:04:40.383Z,364
2016-05-07T07:05:40.542Z,364
2016-05-07T07:06:40.732Z,368
2016-05-07T07:07:40.593Z,368
2016-05-07T07:08:40.769Z,372
2016-05-07T07:09:42.273Z,372
2016-05-07T07:10:40.851Z,372
2016-05-07T07:11:40.840Z,372
2016-05-07T07:12:42.298Z,376
2016-05-07T07:13:42.003Z,376
2016-05-07T07:14:41.428Z,376
2016-05-07T07:15:41.586Z,380
2016-05-07T07:16:41.653Z,380
2016-05-07T07:17:41.200Z,380
2016-05-07T07:18:42.767Z,380
2016-05-07T07:19:40.970Z,380
2016-05-07T07:20:41.082Z,384
2016-05-07T07:21:41.569Z,380
2016-05-07T07:22:43.122Z,388
2016-05-07T07:23:41.122Z,388
2016-05-07T07:24:41.000Z,384
2016-05-07T07:25:41.096Z,388
2016-05-07T07:26:42.866Z,388
2016-05-07T07:27:42.854Z,392
2016-05-07T07:28:41.572Z,396
2016-05-07T07:29:41.215Z,396
2016-05-07T07:30:41.297Z,396
2016-05-07T07:31:41.331Z,396
2016-05-07T07:32:41.349Z,396
2016-05-07T07:33:41.210Z,396
2016-05-07T07:34:41.401Z,400
2016-05-07T07:35:41.263Z,400
2016-05-07T07:36:41.454Z,400
2016-05-07T07:37:41.519Z,400
2016-05-07T07:38:41.521Z,404
2016-05-07T07:39:41.368Z,408
2016-05-07T07:40:41.542Z,408
2016-05-07T07:41:41.514Z,412
2016-05-07T07:42:41.454Z,412
2016-05-07T07:43:41.613Z,412
2016-05-07T07:44:41.647Z,416
2016-05-07T07:45:41.665Z,420
2016-05-07T07:46:41.542Z,420
2016-05-07T07:47:41.670Z,424
2016-05-07T07:48:41.595Z,424
2016-05-07T07:49:41.770Z,424
2016-05-07T07:50:41.803Z,432
2016-05-07T07:51:41.806Z,432
2016-05-07T07:52:41.433Z,436
2016-05-07T07:53:41.703Z,440
2016-05-07T07:54:41.892Z,444
2016-05-07T07:55:41.927Z,444
2016-05-07T07:56:41.945Z,448
2016-05-07T07:57:41.822Z,452
2016-05-07T07:58:41.841Z,456
2016-05-07T07:59:42.046Z,460
2016-05-07T08:00:42.049Z,464
2016-05-07T08:01:42.068Z,468
2016-05-07T08:02:42.102Z,472
2016-05-07T08:03:42.119Z,476
2016-05-07T08:04:42.138Z,480
2016-05-07T08:05:42.249Z,484
2016-05-07T08:06:42.285Z,488
2016-05-07T08:07:42.130Z,492
2016-05-07T08:08:42.290Z,496
2016-05-07T08:09:42.432Z,504
2016-05-07T08:10:42.467Z,504
2016-05-07T08:11:42.454Z,508
2016-05-07T08:12:42.847Z,512
2016-05-07T08:13:42.475Z,516
2016-05-07T08:14:42.337Z,516
2016-05-07T08:15:42.480Z,520
2016-05-07T08:16:42.499Z,524
2016-05-07T08:17:42.501Z,524
2016-05-07T08:18:42.519Z,532
2016-05-07T08:19:42.522Z,536
2016-05-07T08:20:42.572Z,544
2016-05-07T08:21:42.512Z,548
2016-05-07T08:22:42.453Z,552
2016-05-07T08:23:42.627Z,560
2016-05-07T08:24:42.660Z,560
2016-05-07T08:25:42.694Z,564
2016-05-07T08:26:42.714Z,572
2016-05-07T08:27:43.091Z,576
2016-05-07T08:28:42.780Z,580
2016-05-07T08:29:42.804Z,588
2016-05-07T08:30:42.864Z,588
2016-05-07T08:31:42.943Z,592
2016-05-07T08:32:42.847Z,600
2016-05-07T08:33:43.096Z,608
2016-05-07T08:34:43.154Z,612
2016-05-07T08:35:43.203Z,616
2016-05-07T08:36:43.081Z,620
2016-05-07T08:37:43.271Z,624
2016-05-07T08:38:43.304Z,632
2016-05-07T08:39:43.212Z,636
2016-05-07T08:40:43.392Z,640
2016-05-07T08:41:43.275Z,644
2016-05-07T08:42:43.816Z,648
2016-05-07T08:43:43.480Z,656
2016-05-07T08:44:43.535Z,660
2016-05-07T08:45:43.540Z,664
2016-05-07T08:46:43.420Z,664
2016-05-07T08:47:43.611Z,672
2016-05-07T08:48:43.631Z,676
2016-05-07T08:49:43.653Z,684
2016-05-07T08:50:43.781Z,692
2016-05-07T08:51:43.643Z,696
2016-05-07T08:52:43.788Z,700
2016-05-07T08:53:43.806Z,708
2016-05-07T08:54:43.809Z,716
2016-05-07T08:55:43.843Z,724
2016-05-07T08:56:43.863Z,732
2016-05-07T08:57:43.991Z,740
2016-05-07T08:58:43.916Z,748
2016-05-07T08:59:43.950Z,748
2016-05-07T09:00:43.968Z,756
2016-05-07T09:01:44.002Z,764
2016-05-07T09:02:43.708Z,776
2016-05-07T09:03:44.054Z,776
2016-05-07T09:04:44.089Z,780
2016-05-07T09:05:44.122Z,792
2016-05-07T09:06:44.157Z,796
2016-05-07T09:07:44.174Z,800
2016-05-07T09:08:44.209Z,804
2016-05-07T09:09:44.227Z,812
2016-05-07T09:10:44.105Z,816
2016-05-07T09:11:44.295Z,824
2016-05-07T09:12:44.173Z,832
2016-05-07T09:13:44.331Z,840
2016-05-07T09:14:44.366Z,856
2016-05-07T09:15:44.540Z,860
2016-05-07T09:16:44.262Z,856
2016-05-07T09:17:44.451Z,868
2016-05-07T09:18:44.329Z,876
2016-05-07T09:19:44.504Z,876
2016-05-07T09:20:44.538Z,876
2016-05-07T09:21:44.415Z,884
2016-05-07T09:22:44.605Z,896
2016-05-07T09:23:44.312Z,900
2016-05-07T09:24:44.752Z,900
2016-05-07T09:25:44.614Z,916
2016-05-07T09:26:44.758Z,932
2016-05-07T09:27:45.463Z,924
2016-05-07T09:28:44.778Z,920
2016-05-07T09:29:44.766Z,916
2016-05-07T09:30:44.830Z,916
2016-05-07T09:31:44.880Z,928
2016-05-07T09:32:44.898Z,936
2016-05-07T09:33:44.791Z,952
2016-05-07T09:34:44.950Z,968
2016-05-07T09:35:44.985Z,968
2016-05-07T09:36:45.019Z,964
2016-05-07T09:37:45.037Z,980
2016-05-07T09:38:45.071Z,984
2016-05-07T09:39:45.104Z,988
2016-05-07T09:40:45.123Z,1000
2016-05-07T09:41:45.016Z,1016
2016-05-07T09:42:45.691Z,1028
2016-05-07T09:43:45.224Z,1028
2016-05-07T09:44:45.243Z,1020
2016-05-07T09:45:45.277Z,1032
2016-05-07T09:46:45.296Z,1052
2016-05-07T09:47:45.329Z,1056
2016-05-07T09:48:45.051Z,1060
2016-05-07T09:49:45.381Z,1072
2016-05-07T09:50:45.259Z,1084
2016-05-07T09:51:45.465Z,1100
2016-05-07T09:52:45.484Z,1116
2016-05-07T09:53:45.533Z,1128
2016-05-07T09:54:45.551Z,1140
2016-05-07T09:55:45.413Z,1148
2016-05-07T09:56:45.604Z,1168
2016-05-07T09:57:46.403Z,1172
2016-05-07T09:58:45.672Z,1180
2016-05-07T09:59:45.705Z,1200
2016-05-07T10:00:45.739Z,1200
2016-05-07T10:01:45.602Z,1212
2016-05-07T10:02:45.792Z,1216
2016-05-07T10:03:45.669Z,1232
2016-05-07T10:04:45.688Z,1248
2016-05-07T10:05:46.003Z,1252
2016-05-07T10:06:45.911Z,1256
2016-05-07T10:07:45.961Z,1264
2016-05-07T10:08:45.980Z,1276
2016-05-07T10:09:45.998Z,1296
2016-05-07T10:10:46.063Z,1300
2016-05-07T10:11:46.066Z,1296
2016-05-07T10:12:46.709Z,1308
2016-05-07T10:13:46.134Z,1312
2016-05-07T10:14:46.168Z,1308
2016-05-07T10:15:46.045Z,1324
2016-05-07T10:16:46.063Z,1352
2016-05-07T10:17:46.254Z,1368
2016-05-07T10:18:46.319Z,1372
2016-05-07T10:19:46.150Z,1360
2016-05-07T10:20:46.356Z,1384
2016-05-07T10:21:46.390Z,1392
2016-05-07T10:22:46.423Z,1392
2016-05-07T10:23:46.441Z,1404
2016-05-07T10:24:46.491Z,1416
2016-05-07T10:25:46.510Z,1424
2016-05-07T10:26:46.419Z,1440
2016-05-07T10:27:47.509Z,1464
2016-05-07T10:28:46.623Z,1480
2016-05-07T10:29:46.640Z,1500
2016-05-07T10:30:46.517Z,1520
2016-05-07T10:31:46.709Z,1528
2016-05-07T10:32:46.430Z,1536
2016-05-07T10:33:46.761Z,1560
2016-05-07T10:34:46.638Z,1580
2016-05-07T10:35:46.517Z,1596
2016-05-07T10:36:46.550Z,1604
2016-05-07T10:37:46.880Z,1608
2016-05-07T10:38:46.947Z,1624
2016-05-07T10:39:46.808Z,1640
2016-05-07T10:40:46.982Z,1636
2016-05-07T10:41:46.860Z,1664
2016-05-07T10:42:46.910Z,1648
2016-05-07T10:43:46.944Z,1656
2016-05-07T10:44:47.134Z,1660
2016-05-07T10:45:47.152Z,1660
2016-05-07T10:46:47.186Z,1676
2016-05-07T10:47:47.220Z,1668
2016-05-07T10:48:47.113Z,1672
2016-05-07T10:49:47.288Z,1668
2016-05-07T10:50:47.322Z,1660
2016-05-07T10:51:47.356Z,1676
2016-05-07T10:52:47.390Z,1684
2016-05-07T10:53:47.252Z,1692
2016-05-07T10:54:47.129Z,1728
2016-05-07T10:55:47.476Z,1740
2016-05-07T10:56:47.525Z,1736
2016-05-07T10:57:48.388Z,1748
2016-05-07T10:58:47.593Z,1792
2016-05-07T10:59:47.611Z,1796
2016-05-07T11:00:47.506Z,1820
2016-05-07T11:01:47.680Z,1808
2016-05-07T11:02:47.697Z,1788
2016-05-07T11:03:47.747Z,1792
2016-05-07T11:04:47.782Z,1828
2016-05-07T11:05:47.800Z,1844
2016-05-07T11:06:47.849Z,1836
2016-05-07T11:07:47.884Z,1892
2016-05-07T11:08:47.917Z,1868
2016-05-07T11:09:47.951Z,1920
2016-05-07T11:10:47.985Z,1932
2016-05-07T11:11:48.019Z,1812
2016-05-07T11:12:48.069Z,1160
2016-05-07T11:13:48.087Z,1924
2016-05-07T11:14:48.105Z,1048
2016-05-07T11:15:48.139Z,2268
2016-05-07T11:16:48.173Z,2628
2016-05-07T11:17:48.066Z,2224
2016-05-07T11:18:48.257Z,2076
2016-05-07T11:19:48.291Z,2072
2016-05-07T11:20:48.324Z,2020
2016-05-07T11:21:48.343Z,1996
2016-05-07T11:22:48.392Z,1968
2016-05-07T11:23:48.957Z,1952
2016-05-07T11:24:48.304Z,1940
2016-05-07T11:25:48.495Z,1956
2016-05-07T11:26:48.387Z,1964
2016-05-07T11:27:48.421Z,2028
2016-05-07T11:28:48.596Z,1340
2016-05-07T11:29:48.630Z,2100
2016-05-07T11:30:48.648Z,1180
2016-05-07T11:31:48.526Z,1052
2016-05-07T11:32:48.731Z,1140
2016-05-07T11:33:48.751Z,1428
2016-05-07T11:34:48.784Z,1452
2016-05-07T11:35:48.818Z,2560
2016-05-07T11:36:48.867Z,2692
2016-05-07T11:37:48.744Z,2688
2016-05-07T11:38:48.936Z,2400
2016-05-07T11:39:49.000Z,2260
2016-05-07T11:40:48.831Z,1808
2016-05-07T11:41:48.880Z,2268
2016-05-07T11:42:48.759Z,2316
2016-05-07T11:43:48.793Z,2288
2016-05-07T11:44:49.138Z,2260
2016-05-07T11:45:49.174Z,2252
2016-05-07T11:46:49.051Z,2268
2016-05-07T11:47:49.241Z,2244
2016-05-07T11:48:49.274Z,2208
2016-05-07T11:49:49.309Z,2232
2016-05-07T11:50:49.374Z,2268
2016-05-07T11:51:49.393Z,2260
2016-05-07T11:52:49.254Z,2248
2016-05-07T11:53:49.445Z,2260
2016-05-07T11:54:49.323Z,2252
2016-05-07T11:55:49.528Z,2256
2016-05-07T11:56:49.562Z,2260
2016-05-07T11:57:49.439Z,2248
2016-05-07T11:58:49.615Z,2260
2016-05-07T11:59:49.648Z,2232
2016-05-07T12:00:49.542Z,2304
2016-05-07T12:01:49.559Z,2360
2016-05-07T12:02:49.765Z,2308
2016-05-07T12:03:49.815Z,2292
2016-05-07T12:04:49.833Z,2284
2016-05-07T12:05:49.883Z,2292
2016-05-07T12:06:49.745Z,2340
2016-05-07T12:07:49.795Z,2340
2016-05-07T12:08:49.969Z,1404
2016-05-07T12:09:50.019Z,2328
2016-05-07T12:10:50.037Z,2380
2016-05-07T12:11:50.071Z,1188
2016-05-07T12:12:49.808Z,2048
2016-05-07T12:13:50.139Z,2448
2016-05-07T12:14:50.172Z,1596
2016-05-07T12:15:50.222Z,2448
2016-05-07T12:16:50.241Z,2400
2016-05-07T12:17:50.290Z,2380
2016-05-07T12:18:50.168Z,2376
2016-05-07T12:19:50.374Z,2392
2016-05-07T12:20:50.236Z,2452
2016-05-07T12:21:50.113Z,2520
2016-05-07T12:22:50.304Z,2488
2016-05-07T12:23:50.494Z,2652
2016-05-07T12:24:50.543Z,2748
2016-05-07T12:25:50.562Z,2632
2016-05-07T12:26:50.439Z,2604
2016-05-07T12:27:51.099Z,2604
2016-05-07T12:28:50.351Z,2208
2016-05-07T12:29:50.713Z,2452
2016-05-07T12:30:50.590Z,2464
2016-05-07T12:31:50.781Z,2416
2016-05-07T12:32:50.659Z,1208
2016-05-07T12:33:50.848Z,2476
2016-05-07T12:34:50.884Z,2460
2016-05-07T12:35:50.932Z,2644
2016-05-07T12:36:50.967Z,2468
2016-05-07T12:37:50.844Z,2452
2016-05-07T12:38:51.019Z,2456
2016-05-07T12:39:50.927Z,2488
2016-05-07T12:40:50.947Z,2484
2016-05-07T12:41:51.136Z,2464
2016-05-07T12:42:51.483Z,2448
2016-05-07T12:43:51.204Z,2428
2016-05-07T12:44:50.941Z,2416
2016-05-07T12:45:51.288Z,2412
2016-05-07T12:46:51.322Z,2424
2016-05-07T12:47:51.340Z,2464
2016-05-07T12:48:51.233Z,2488
2016-05-07T12:49:51.424Z,2504
2016-05-07T12:50:51.457Z,2928
2016-05-07T12:51:51.335Z,3464
2016-05-07T12:52:51.524Z,3864
2016-05-07T12:53:51.246Z,3684
2016-05-07T12:54:51.608Z,3264
2016-05-07T12:55:51.658Z,3180
2016-05-07T12:56:51.676Z,3040
2016-05-07T12:57:51.788Z,2788
2016-05-07T12:58:51.745Z,2624
2016-05-07T12:59:51.638Z,2548
2016-05-07T13:00:51.812Z,2516
2016-05-07T13:01:51.846Z,2532
2016-05-07T13:02:51.896Z,2516
2016-05-07T13:03:51.929Z,2584
2016-05-07T13:04:51.964Z,2556
2016-05-07T13:05:52.044Z,2576
2016-05-07T13:06:52.031Z,2564
2016-05-07T13:07:52.065Z,2528
2016-05-07T13:08:52.114Z,2484
2016-05-07T13:09:52.149Z,2520
2016-05-07T13:10:52.027Z,2556
2016-05-07T13:11:52.217Z,2672
2016-05-07T13:12:52.110Z,2908
2016-05-07T13:13:52.285Z,3528
2016-05-07T13:14:52.318Z,3552
2016-05-07T13:15:52.353Z,3192
2016-05-07T13:16:52.089Z,2180
2016-05-07T13:17:52.279Z,1820
2016-05-07T13:18:52.313Z,2760
2016-05-07T13:19:52.504Z,2660
2016-05-07T13:20:52.538Z,2656
2016-05-07T13:21:52.415Z,2636
2016-05-07T13:22:52.512Z,2636
2016-05-07T13:23:52.655Z,2652
2016-05-07T13:24:52.548Z,2696
2016-05-07T13:25:52.551Z,2724
2016-05-07T13:26:52.616Z,2740
2016-05-07T13:27:52.635Z,2724
2016-05-07T13:28:52.825Z,2748
2016-05-07T13:29:52.874Z,2800
2016-05-07T13:30:52.908Z,2880
2016-05-07T13:31:52.926Z,3372
2016-05-07T13:32:52.992Z,4044
2016-05-07T13:33:53.042Z,4120
2016-05-07T13:34:53.044Z,3792
2016-05-07T13:35:53.078Z,3660
2016-05-07T13:36:53.112Z,3868
2016-05-07T13:37:56.164Z,3772
2016-05-07T13:38:53.211Z,3492
2016-05-07T13:39:53.230Z,3276
2016-05-07T13:40:53.264Z,3152
2016-05-07T13:41:53.313Z,3076
2016-05-07T13:42:53.347Z,3020
2016-05-07T13:43:53.397Z,3056
2016-05-07T13:44:53.431Z,3084
2016-05-07T13:45:53.449Z,2992
2016-05-07T13:46:53.170Z,3136
2016-05-07T13:47:53.532Z,3672
2016-05-07T13:48:53.410Z,3800
2016-05-07T13:49:53.600Z,2448
2016-05-07T13:50:53.650Z,3472
2016-05-07T13:51:53.683Z,3384
2016-05-07T13:52:53.733Z,3388